createdAt,value
2019-04-28T00:01:01.960Z,8.80
2019-04-28T00:03:33.245Z,8.81
2019-04-28T00:06:04.587Z,8.83
2019-04-28T00:08:35.901Z,8.80
2019-04-28T00:11:07.227Z,8.87
2019-04-28T00:13:38.500Z,8.85
2019-04-28T00:16:11.452Z,8.67
2019-04-28T00:18:42.911Z,8.74
2019-04-28T00:21:20.984Z,8.82
2019-04-28T00:24:21.122Z,8.71
2019-04-28T00:27:04.252Z,8.70
2019-04-28T00:29:40.851Z,8.82
2019-04-28T00:32:08.532Z,8.67
2019-04-28T00:34:41.200Z,8.81
2019-04-28T00:37:31.918Z,8.77
2019-04-28T00:40:03.625Z,8.75
2019-04-28T00:42:34.904Z,8.69
2019-04-28T00:45:08.378Z,8.63
2019-04-28T00:47:41.273Z,8.65
2019-04-28T00:50:12.851Z,8.68
2019-04-28T00:52:44.158Z,8.66
2019-04-28T00:55:15.491Z,8.85
2019-04-28T00:57:46.806Z,8.74
2019-04-28T01:00:21.513Z,8.84
2019-04-28T01:02:53.309Z,8.73
2019-04-28T01:05:24.793Z,8.57
2019-04-28T01:07:56.047Z,8.59
2019-04-28T01:10:28.020Z,8.66
2019-04-28T01:12:59.344Z,8.61
2019-04-28T01:16:04.426Z,8.70
2019-04-28T01:18:41.750Z,8.75
2019-04-28T01:21:13.004Z,8.74
2019-04-28T01:23:44.223Z,8.78
2019-04-28T01:26:15.485Z,8.64
2019-04-28T01:28:46.741Z,8.66
2019-04-28T01:31:43.767Z,8.67
2019-04-28T01:34:20.634Z,8.68
2019-04-28T01:36:52.163Z,8.68
2019-04-28T01:39:23.474Z,8.70
2019-04-28T01:41:54.766Z,8.56
2019-04-28T01:44:26.072Z,8.68
2019-04-28T01:46:59.485Z,8.66
2019-04-28T01:49:30.373Z,8.62
2019-04-28T01:52:02.457Z,8.57
2019-04-28T01:54:33.730Z,8.59
2019-04-28T01:57:05.086Z,8.67
2019-04-28T01:59:36.423Z,8.65
2019-04-28T02:02:07.708Z,8.53
2019-04-28T02:04:40.184Z,8.55
2019-04-28T02:07:11.722Z,8.46
2019-04-28T02:09:43.051Z,8.63
2019-04-28T02:12:14.354Z,8.52
2019-04-28T02:14:45.631Z,8.64
2019-04-28T02:17:16.934Z,8.68
2019-04-28T02:19:48.299Z,8.60
2019-04-28T02:22:43.050Z,8.48
2019-04-28T02:25:14.373Z,8.53
2019-04-28T02:27:45.710Z,8.61
2019-04-28T02:30:17.015Z,8.54
2019-04-28T02:32:48.299Z,8.67
2019-04-28T02:35:21.345Z,8.54
2019-04-28T02:37:52.595Z,8.61
2019-04-28T02:40:23.864Z,8.71
2019-04-28T02:42:55.189Z,8.58
2019-04-28T02:45:26.481Z,8.55
2019-04-28T02:48:01.242Z,8.57
2019-04-28T02:50:52.542Z,8.60
2019-04-28T02:53:33.227Z,8.67
2019-04-28T02:56:01.950Z,8.61
2019-04-28T02:58:33.260Z,8.61
2019-04-28T03:01:15.259Z,8.62
2019-04-28T03:03:37.577Z,8.66
2019-04-28T03:06:10.798Z,8.57
2019-04-28T03:08:41.873Z,8.53
2019-04-28T03:11:13.146Z,8.58
2019-04-28T03:13:44.445Z,8.38
2019-04-28T03:16:15.766Z,8.47
2019-04-28T03:18:47.085Z,8.53
2019-04-28T03:21:21.177Z,8.62
2019-04-28T03:23:51.915Z,8.54
2019-04-28T03:26:41.377Z,8.46
2019-04-28T03:29:20.522Z,8.50
2019-04-28T03:32:28.638Z,8.49
2019-04-28T03:34:47.497Z,8.36
2019-04-28T03:37:23.620Z,8.32
2019-04-28T03:39:51.886Z,8.33
2019-04-28T03:42:23.292Z,8.49
2019-04-28T03:44:55.935Z,8.43
2019-04-28T03:47:27.235Z,8.37
2019-04-28T03:50:00.076Z,8.48
2019-04-28T03:52:31.952Z,8.55
2019-04-28T03:55:03.249Z,8.58
2019-04-28T03:57:34.550Z,8.40
2019-04-28T04:00:07.391Z,8.38
2019-04-28T04:02:41.221Z,8.37
2019-04-28T04:05:11.801Z,8.41
2019-04-28T04:07:43.386Z,8.41
2019-04-28T04:10:53.977Z,8.38
2019-04-28T04:13:33.031Z,8.39
2019-04-28T04:16:35.077Z,8.33
2019-04-28T04:19:10.435Z,8.35
2019-04-28T04:21:40.964Z,8.26
2019-04-28T04:24:12.227Z,8.30
2019-04-28T04:26:43.515Z,8.30
2019-04-28T04:29:14.858Z,8.33
2019-04-28T04:31:46.152Z,8.35
2019-04-28T04:34:17.458Z,8.36
2019-04-28T04:36:50.880Z,8.31
2019-04-28T04:39:21.811Z,8.31
2019-04-28T04:41:53.121Z,8.22
2019-04-28T04:44:24.406Z,8.22
2019-04-28T04:46:55.711Z,8.26
2019-04-28T04:49:27.002Z,8.30
2019-04-28T04:52:00.412Z,8.17
2019-04-28T04:54:32.747Z,8.21
2019-04-28T04:57:04.305Z,8.45
2019-04-28T04:59:36.981Z,8.40
2019-04-28T05:02:29.310Z,8.32
2019-04-28T05:05:08.154Z,8.35
2019-04-28T05:07:39.667Z,8.39
2019-04-28T05:10:11.008Z,8.50
2019-04-28T05:12:42.287Z,8.35
2019-04-28T05:15:13.656Z,8.38
2019-04-28T05:17:44.952Z,8.26
2019-04-28T05:20:16.253Z,8.36
2019-04-28T05:22:53.622Z,8.37
2019-04-28T05:25:32.547Z,8.44
2019-04-28T05:28:03.595Z,8.41
2019-04-28T05:30:38.891Z,8.50
2019-04-28T05:33:07.829Z,8.55
2019-04-28T05:35:39.732Z,8.48
2019-04-28T05:38:11.089Z,8.56
2019-04-28T05:40:42.373Z,8.55
2019-04-28T05:43:13.648Z,8.49
2019-04-28T05:45:44.958Z,8.55
2019-04-28T05:48:19.997Z,8.51
2019-04-28T05:51:01.823Z,8.51
2019-04-28T05:53:47.350Z,8.40
2019-04-28T05:56:27.485Z,8.51
2019-04-28T05:59:15.478Z,8.51
2019-04-28T06:02:10.328Z,8.51
2019-04-28T06:04:42.529Z,8.50
2019-04-28T06:07:37.402Z,8.51
2019-04-28T06:10:10.155Z,8.53
2019-04-28T06:12:41.960Z,8.50
2019-04-28T06:15:13.344Z,8.66
2019-04-28T06:17:44.622Z,8.70
2019-04-28T06:20:17.224Z,8.64
2019-04-28T06:22:48.518Z,8.58
2019-04-28T06:25:19.846Z,8.61
2019-04-28T06:27:51.116Z,8.67
2019-04-28T06:30:22.588Z,8.82
2019-04-28T06:33:06.786Z,8.77
2019-04-28T06:35:26.907Z,8.84
2019-04-28T06:37:58.209Z,8.88
2019-04-28T06:40:29.520Z,8.95
2019-04-28T06:43:00.827Z,8.87
2019-04-28T06:45:32.133Z,8.96
2019-04-28T06:48:03.406Z,8.91
2019-04-28T06:50:34.705Z,9.11
2019-04-28T06:53:05.975Z,9.12
2019-04-28T06:55:37.244Z,9.28
2019-04-28T06:58:08.554Z,9.34
2019-04-28T07:00:39.858Z,9.31
2019-04-28T07:03:22.646Z,9.28
2019-04-28T07:05:44.147Z,9.33
2019-04-28T07:08:15.465Z,9.43
2019-04-28T07:10:46.781Z,9.45
2019-04-28T07:13:20.587Z,9.50
2019-04-28T07:15:51.039Z,9.44
2019-04-28T07:18:22.338Z,9.44
2019-04-28T07:21:15.188Z,9.53
2019-04-28T07:23:46.484Z,9.56
2019-04-28T07:26:17.797Z,9.59
2019-04-28T07:28:49.103Z,9.49
2019-04-28T07:31:22.046Z,9.57
2019-04-28T07:33:53.383Z,9.54
2019-04-28T07:36:24.642Z,9.75
2019-04-28T07:38:55.979Z,9.74
2019-04-28T07:41:27.260Z,9.81
2019-04-28T07:43:58.569Z,9.77
2019-04-28T07:46:29.936Z,9.87
2019-04-28T07:49:01.179Z,9.80
2019-04-28T07:51:51.365Z,9.75
2019-04-28T07:54:22.876Z,9.80
2019-04-28T07:56:54.150Z,9.83
2019-04-28T07:59:25.429Z,9.96
2019-04-28T08:01:56.709Z,9.92
2019-04-28T08:04:28.007Z,9.93
2019-04-28T08:06:59.284Z,9.89
2019-04-28T08:09:30.595Z,9.95
2019-04-28T08:12:01.923Z,10.02
2019-04-28T08:14:33.284Z,10.09
2019-04-28T08:17:04.683Z,10.18
2019-04-28T08:19:35.965Z,10.44
2019-04-28T08:22:07.299Z,10.56
2019-04-28T08:24:38.614Z,10.79
2019-04-28T08:27:09.872Z,10.95
2019-04-28T08:29:41.177Z,10.91
2019-04-28T08:32:27.653Z,10.94
2019-04-28T08:34:58.982Z,10.97
2019-04-28T08:37:30.303Z,11.20
2019-04-28T08:40:01.593Z,10.99
2019-04-28T08:42:32.877Z,10.79
2019-04-28T08:45:04.341Z,10.88
2019-04-28T08:47:35.659Z,10.77
2019-04-28T08:50:07.188Z,10.95
2019-04-28T08:52:38.518Z,10.92
2019-04-28T08:55:10.028Z,11.05
2019-04-28T08:57:41.360Z,11.13
2019-04-28T09:00:13.518Z,11.65
2019-04-28T09:02:44.839Z,12.19
2019-04-28T09:05:16.358Z,12.43
2019-04-28T09:07:47.684Z,12.56
2019-04-28T09:10:18.990Z,12.86
2019-04-28T09:12:50.289Z,12.79
2019-04-28T09:15:21.571Z,12.70
2019-04-28T09:17:52.886Z,12.77
2019-04-28T09:20:24.229Z,12.95
2019-04-28T09:22:55.587Z,12.72
2019-04-28T09:25:26.897Z,12.57
2019-04-28T09:27:58.198Z,12.60
2019-04-28T09:30:29.725Z,12.26
2019-04-28T09:33:00.998Z,12.15
2019-04-28T09:35:32.329Z,12.07
2019-04-28T09:38:03.642Z,12.11
2019-04-28T09:40:34.981Z,12.56
2019-04-28T09:43:37.428Z,12.68
2019-04-28T09:46:21.607Z,13.08
2019-04-28T09:48:52.926Z,13.58
2019-04-28T09:51:24.230Z,13.67
2019-04-28T09:53:55.538Z,13.71
2019-04-28T09:56:26.972Z,13.71
2019-04-28T09:58:58.331Z,13.52
2019-04-28T10:01:29.595Z,13.23
2019-04-28T10:04:00.903Z,13.26
2019-04-28T10:06:32.195Z,13.17
2019-04-28T10:09:03.971Z,13.04
2019-04-28T10:11:35.310Z,12.98
2019-04-28T10:14:06.597Z,12.86
2019-04-28T10:16:37.900Z,12.99
2019-04-28T10:19:09.221Z,13.14
2019-04-28T10:21:40.480Z,13.27
2019-04-28T10:24:11.813Z,13.35
2019-04-28T10:26:43.136Z,13.48
2019-04-28T10:29:14.444Z,13.43
2019-04-28T10:31:45.750Z,13.43
2019-04-28T10:34:17.035Z,13.51
2019-04-28T10:36:48.356Z,13.64
2019-04-28T10:39:50.406Z,13.71
2019-04-28T10:42:21.717Z,13.64
2019-04-28T10:44:53.258Z,14.28
2019-04-28T10:47:24.636Z,15.01
2019-04-28T10:49:56.635Z,14.66
2019-04-28T10:52:27.933Z,14.42
2019-04-28T10:54:59.230Z,14.24
2019-04-28T10:57:30.451Z,14.26
2019-04-28T11:00:01.876Z,14.12
2019-04-28T11:02:33.116Z,14.15
2019-04-28T11:05:12.545Z,14.12
2019-04-28T11:07:43.814Z,14.18
2019-04-28T11:10:17.390Z,13.93
2019-04-28T11:12:48.900Z,13.72
2019-04-28T11:15:28.640Z,13.67
2019-04-28T11:18:00.556Z,13.63
2019-04-28T11:20:32.412Z,13.59
2019-04-28T11:23:03.874Z,14.07
2019-04-28T11:25:35.161Z,14.18
2019-04-28T11:28:06.601Z,14.54
2019-04-28T11:30:37.913Z,14.48
2019-04-28T11:33:26.833Z,14.78
2019-04-28T11:35:58.219Z,14.77
2019-04-28T11:38:29.572Z,14.80
2019-04-28T11:41:00.923Z,14.15
2019-04-28T11:43:32.223Z,14.21
2019-04-28T11:46:05.032Z,14.50
2019-04-28T11:48:36.323Z,14.87
2019-04-28T11:51:07.630Z,14.37
2019-04-28T11:53:42.506Z,14.30
2019-04-28T11:56:13.902Z,14.08
2019-04-28T11:58:45.282Z,13.88
2019-04-28T12:01:17.747Z,13.58
2019-04-28T12:03:52.265Z,13.62
2019-04-28T12:06:23.603Z,13.49
2019-04-28T12:08:57.722Z,13.55
2019-04-28T12:11:35.023Z,13.72
2019-04-28T12:14:25.405Z,13.99
2019-04-28T12:17:14.344Z,14.46
2019-04-28T12:19:48.270Z,14.53
2019-04-28T12:22:19.765Z,14.65
2019-04-28T12:24:51.136Z,14.53
2019-04-28T12:27:22.507Z,14.44
2019-04-28T12:29:53.857Z,14.42
2019-04-28T12:32:25.225Z,14.55
2019-04-28T12:34:56.642Z,14.80
2019-04-28T12:37:28.034Z,15.13
2019-04-28T12:39:59.451Z,15.28
2019-04-28T12:42:30.786Z,15.14
2019-04-28T12:45:02.065Z,15.44
2019-04-28T12:47:33.425Z,16.17
2019-04-28T12:50:25.850Z,16.72
2019-04-28T12:52:57.142Z,16.48
2019-04-28T12:55:28.419Z,16.03
2019-04-28T12:57:59.762Z,15.89
2019-04-28T13:00:39.500Z,15.88
2019-04-28T13:03:15.608Z,15.91
2019-04-28T13:06:00.204Z,15.83
2019-04-28T13:08:20.631Z,15.83
2019-04-28T13:10:51.992Z,15.41
2019-04-28T13:13:23.292Z,15.07
2019-04-28T13:15:54.594Z,14.92
2019-04-28T13:18:25.897Z,14.72
2019-04-28T13:20:59.030Z,14.39
2019-04-28T13:23:30.245Z,13.90
2019-04-28T13:26:01.550Z,13.70
2019-04-28T13:28:32.950Z,13.49
2019-04-28T13:31:04.293Z,13.50
2019-04-28T13:33:35.759Z,13.41
2019-04-28T13:36:14.588Z,13.44
2019-04-28T13:38:40.233Z,13.08
2019-04-28T13:41:11.665Z,12.98
2019-04-28T13:43:43.078Z,13.00
2019-04-28T13:46:14.421Z,13.09
2019-04-28T13:48:45.829Z,12.67
2019-04-28T13:51:17.105Z,12.43
2019-04-28T13:53:48.419Z,12.29
2019-04-28T13:56:19.801Z,12.14
2019-04-28T13:59:14.666Z,11.87
2019-04-28T14:02:07.952Z,11.74
2019-04-28T14:04:54.783Z,11.55
2019-04-28T14:07:26.076Z,11.50
2019-04-28T14:09:57.326Z,11.50
2019-04-28T14:12:28.654Z,11.60
2019-04-28T14:14:59.981Z,11.63
2019-04-28T14:17:31.301Z,11.61
2019-04-28T14:20:02.650Z,11.64
2019-04-28T14:22:33.953Z,11.78
2019-04-28T14:25:05.539Z,11.83
2019-04-28T14:27:36.844Z,11.92
2019-04-28T14:30:08.508Z,12.14
2019-04-28T14:32:39.825Z,12.30
2019-04-28T14:35:11.310Z,12.48
2019-04-28T14:37:42.693Z,12.69
2019-04-28T14:40:14.246Z,13.15
2019-04-28T14:42:45.560Z,13.54
2019-04-28T14:45:18.007Z,13.82
2019-04-28T14:47:49.455Z,13.57
2019-04-28T14:50:20.831Z,13.18
2019-04-28T14:52:52.095Z,13.01
2019-04-28T14:55:23.420Z,12.95
2019-04-28T14:57:54.731Z,12.86
2019-04-28T15:00:32.447Z,12.65
2019-04-28T15:03:07.573Z,12.51
2019-04-28T15:05:56.354Z,12.46
2019-04-28T15:08:58.646Z,12.53
2019-04-28T15:11:42.786Z,12.50
2019-04-28T15:14:14.113Z,12.55
2019-04-28T15:16:45.529Z,12.56
2019-04-28T15:19:16.932Z,12.57
2019-04-28T15:21:48.370Z,12.57
2019-04-28T15:24:19.718Z,12.64
2019-04-28T15:26:50.967Z,12.64
2019-04-28T15:29:22.297Z,12.73
2019-04-28T15:31:53.630Z,12.89
2019-04-28T15:34:24.886Z,12.76
2019-04-28T15:37:08.917Z,12.81
2019-04-28T15:39:29.354Z,12.86
2019-04-28T15:42:00.798Z,12.74
2019-04-28T15:44:32.194Z,12.66
2019-04-28T15:47:03.648Z,12.71
2019-04-28T15:49:35.117Z,12.65
2019-04-28T15:52:06.635Z,12.62
2019-04-28T15:54:38.030Z,12.65
2019-04-28T15:57:09.340Z,12.65
2019-04-28T15:59:40.741Z,12.66
2019-04-28T16:02:12.343Z,12.62
2019-04-28T16:04:43.811Z,12.59
2019-04-28T16:07:24.772Z,12.63
2019-04-28T16:09:48.558Z,12.63
2019-04-28T16:12:20.155Z,12.62
2019-04-28T16:14:51.718Z,12.55
2019-04-28T16:17:23.262Z,12.58
2019-04-28T16:19:54.764Z,12.56
2019-04-28T16:22:26.142Z,12.56
2019-04-28T16:24:57.469Z,12.55
2019-04-28T16:27:28.804Z,12.56
2019-04-28T16:30:00.158Z,12.66
2019-04-28T16:32:31.504Z,12.85
2019-04-28T16:35:02.911Z,12.97
2019-04-28T16:37:39.074Z,13.07
2019-04-28T16:40:09.642Z,13.09
2019-04-28T16:43:12.379Z,13.08
2019-04-28T16:45:43.708Z,13.10
2019-04-28T16:48:15.091Z,13.19
2019-04-28T16:50:46.558Z,13.25
2019-04-28T16:53:17.993Z,13.30
2019-04-28T16:56:06.837Z,13.33
2019-04-28T16:59:03.342Z,13.35
2019-04-28T17:01:44.846Z,13.31
2019-04-28T17:04:16.460Z,13.32
2019-04-28T17:06:48.079Z,13.18
2019-04-28T17:09:21.343Z,13.08
2019-04-28T17:11:52.989Z,13.02
2019-04-28T17:14:24.611Z,13.03
2019-04-28T17:16:56.193Z,13.07
2019-04-28T17:19:27.757Z,13.07
2019-04-28T17:21:59.247Z,13.00
2019-04-28T17:24:30.841Z,13.02
2019-04-28T17:27:02.353Z,13.01
2019-04-28T17:29:33.935Z,12.91
2019-04-28T17:32:05.393Z,12.89
2019-04-28T17:34:36.862Z,12.86
2019-04-28T17:37:08.662Z,12.86
2019-04-28T17:39:40.275Z,12.80
2019-04-28T17:42:12.696Z,12.72
2019-04-28T17:44:44.357Z,12.59
2019-04-28T17:47:17.616Z,12.48
2019-04-28T17:49:49.191Z,12.40
2019-04-28T17:52:20.788Z,12.29
2019-04-28T17:54:52.417Z,12.21
2019-04-28T17:57:24.032Z,12.12
2019-04-28T17:59:57.515Z,12.07
2019-04-28T18:03:00.031Z,11.98
2019-04-28T18:05:39.960Z,11.95
2019-04-28T18:08:20.792Z,11.92
2019-04-28T18:10:44.903Z,11.89
2019-04-28T18:13:16.561Z,11.86
2019-04-28T18:16:05.629Z,11.84
2019-04-28T18:18:43.401Z,11.80
2019-04-28T18:21:15.034Z,11.77
2019-04-28T18:23:46.691Z,11.71
2019-04-28T18:26:18.321Z,11.66
2019-04-28T18:28:49.900Z,11.62
2019-04-28T18:31:44.067Z,11.57
2019-04-28T18:34:46.513Z,11.52
2019-04-28T18:37:37.075Z,11.44
2019-04-28T18:40:26.339Z,11.34
2019-04-28T18:43:08.235Z,11.26
2019-04-28T18:45:39.928Z,11.19
2019-04-28T18:48:11.576Z,11.09
2019-04-28T18:50:43.217Z,11.03
2019-04-28T18:53:14.864Z,10.98
2019-04-28T18:55:46.475Z,10.91
2019-04-28T18:58:18.141Z,10.84
2019-04-28T19:00:58.000Z,10.80
2019-04-28T19:03:29.620Z,10.75
2019-04-28T19:06:01.285Z,10.70
2019-04-28T19:08:48.871Z,10.69
2019-04-28T19:11:30.235Z,10.67
2019-04-28T19:14:16.740Z,10.63
2019-04-28T19:17:10.281Z,10.60
2019-04-28T19:19:42.471Z,10.52
2019-04-28T19:22:14.064Z,10.47
2019-04-28T19:24:46.261Z,10.46
2019-04-28T19:27:17.961Z,10.41
2019-04-28T19:29:49.654Z,10.39
2019-04-28T19:32:21.331Z,10.34
2019-04-28T19:34:53.016Z,10.30
2019-04-28T19:37:24.716Z,10.26
2019-04-28T19:39:56.436Z,10.24
2019-04-28T19:42:28.146Z,10.21
2019-04-28T19:44:59.820Z,10.17
2019-04-28T19:47:31.441Z,10.15
2019-04-28T19:50:03.127Z,10.14
2019-04-28T19:52:34.760Z,10.11
2019-04-28T19:55:31.933Z,10.07
2019-04-28T19:58:20.897Z,10.01
2019-04-28T20:00:58.965Z,9.96
2019-04-28T20:03:30.518Z,9.93
2019-04-28T20:06:02.250Z,9.91
2019-04-28T20:08:33.889Z,9.87
2019-04-28T20:11:05.437Z,9.85
2019-04-28T20:13:36.967Z,9.84
2019-04-28T20:16:08.476Z,9.78
2019-04-28T20:18:43.307Z,9.73
2019-04-28T20:21:14.741Z,9.71
2019-04-28T20:23:46.131Z,9.63
2019-04-28T20:26:17.461Z,9.59
2019-04-28T20:28:48.697Z,9.54
2019-04-28T20:31:19.975Z,9.50
2019-04-28T20:33:51.345Z,9.43
2019-04-28T20:36:34.423Z,9.37
2019-04-28T20:39:11.598Z,9.31
2019-04-28T20:41:43.005Z,9.25
2019-04-28T20:44:14.311Z,9.20
2019-04-28T20:46:45.649Z,9.15
2019-04-28T20:49:16.978Z,9.10
2019-04-28T20:51:48.298Z,9.05
2019-04-28T20:54:19.594Z,9.01
2019-04-28T20:56:50.908Z,8.97
2019-04-28T20:59:22.218Z,8.93
2019-04-28T21:01:53.516Z,8.90
2019-04-28T21:04:24.810Z,8.85
2019-04-28T21:06:56.088Z,8.80
2019-04-28T21:09:27.421Z,8.75
2019-04-28T21:11:58.728Z,8.72
2019-04-28T21:14:30.014Z,8.66
2019-04-28T21:17:01.314Z,8.61
2019-04-28T21:19:32.678Z,8.55
2019-04-28T21:22:03.955Z,8.50
2019-04-28T21:24:35.240Z,8.47
2019-04-28T21:27:06.582Z,8.43
2019-04-28T21:29:37.883Z,8.39
2019-04-28T21:32:09.196Z,8.35
2019-04-28T21:34:40.481Z,8.31
2019-04-28T21:37:11.792Z,8.24
2019-04-28T21:39:43.098Z,8.19
2019-04-28T21:42:17.447Z,8.11
2019-04-28T21:45:10.440Z,8.04
2019-04-28T21:47:41.804Z,7.99
2019-04-28T21:50:13.071Z,7.97
2019-04-28T21:52:44.415Z,7.99
2019-04-28T21:55:15.716Z,7.98
2019-04-28T21:57:47.348Z,7.95
2019-04-28T22:00:23.965Z,7.91
2019-04-28T22:02:55.206Z,7.88
2019-04-28T22:05:30.590Z,7.86
2019-04-28T22:07:59.514Z,7.84
2019-04-28T22:10:30.799Z,7.81
2019-04-28T22:13:02.109Z,7.75
2019-04-28T22:15:33.480Z,7.73
2019-04-28T22:18:04.906Z,7.73
2019-04-28T22:20:36.197Z,7.69
2019-04-28T22:23:18.278Z,7.63
2019-04-28T22:25:43.790Z,7.58
2019-04-28T22:28:15.068Z,7.53
2019-04-28T22:30:46.357Z,7.45
2019-04-28T22:33:17.650Z,7.42
2019-04-28T22:35:48.967Z,7.36
2019-04-28T22:38:20.289Z,7.31
2019-04-28T22:40:51.626Z,7.25
2019-04-28T22:43:22.908Z,7.21
2019-04-28T22:45:54.246Z,7.21
2019-04-28T22:48:26.652Z,7.19
2019-04-28T22:50:57.934Z,7.14
2019-04-28T22:53:34.479Z,7.11
2019-04-28T22:56:27.860Z,7.10
2019-04-28T22:59:03.831Z,7.06
2019-04-28T23:01:41.447Z,7.03
2019-04-28T23:04:43.509Z,7.02
2019-04-28T23:07:14.980Z,6.99
2019-04-28T23:09:46.253Z,6.94
2019-04-28T23:12:17.531Z,6.93
2019-04-28T23:14:49.001Z,6.91
2019-04-28T23:17:20.745Z,6.88
2019-04-28T23:19:52.137Z,6.87
2019-04-28T23:22:46.042Z,6.87
2019-04-28T23:25:06.660Z,6.83
2019-04-28T23:27:37.957Z,6.77
2019-04-28T23:30:10.487Z,6.74
2019-04-28T23:32:41.788Z,6.74
2019-04-28T23:35:13.227Z,6.72
2019-04-28T23:37:44.503Z,6.69
2019-04-28T23:40:16.240Z,6.69
2019-04-28T23:42:55.734Z,6.67
2019-04-28T23:45:27.057Z,6.63
2019-04-28T23:47:58.334Z,6.63
2019-04-28T23:50:38.594Z,6.59
2019-04-28T23:53:13.160Z,6.59
2019-04-28T23:55:44.466Z,6.51
2019-04-28T23:58:15.773Z,6.49
